createdAt,value
2023-04-18T00:01:22.346Z,5.18
2023-04-18T00:04:09.562Z,4.72
2023-04-18T00:06:56.690Z,5.22
2023-04-18T00:09:44.338Z,5.40
2023-04-18T00:12:34.154Z,5.57
2023-04-18T00:15:21.140Z,5.80
2023-04-18T00:18:08.419Z,5.18
2023-04-18T00:20:56.137Z,5.38
2023-04-18T00:23:43.195Z,6.47
2023-04-18T00:26:30.392Z,5.70
2023-04-18T00:29:18.145Z,5.25
2023-04-18T00:32:05.334Z,5.60
2023-04-18T00:34:53.113Z,5.80
2023-04-18T00:37:40.423Z,5.05
2023-04-18T00:40:28.626Z,6.00
2023-04-18T00:43:16.847Z,6.07
2023-04-18T00:46:03.936Z,6.28
2023-04-18T00:48:51.045Z,6.18
2023-04-18T00:51:39.150Z,6.88
2023-04-18T00:54:27.358Z,6.65
2023-04-18T00:57:14.881Z,6.55
2023-04-18T01:00:04.793Z,7.22
2023-04-18T01:02:55.797Z,6.80
2023-04-18T01:05:43.676Z,6.68
2023-04-18T01:08:31.309Z,7.07
2023-04-18T01:11:18.941Z,8.02
2023-04-18T01:14:08.586Z,7.50
2023-04-18T01:16:57.418Z,8.07
2023-04-18T01:19:46.624Z,7.38
2023-04-18T01:22:34.134Z,7.45
2023-04-18T01:25:21.207Z,7.50
2023-04-18T01:28:08.790Z,7.13
2023-04-18T01:30:55.923Z,7.35
2023-04-18T01:33:42.929Z,7.35
2023-04-18T01:36:30.464Z,6.85
2023-04-18T01:39:18.360Z,6.97
2023-04-18T01:42:05.929Z,7.25
2023-04-18T01:44:52.972Z,6.80
2023-04-18T01:47:40.119Z,8.35
2023-04-18T01:50:27.120Z,8.40
2023-04-18T01:53:14.293Z,7.78
2023-04-18T01:56:05.112Z,8.13
2023-04-18T01:58:52.146Z,8.00
2023-04-18T02:01:39.254Z,7.95
2023-04-18T02:04:26.509Z,7.82
2023-04-18T02:07:13.677Z,8.20
2023-04-18T02:10:00.798Z,8.43
2023-04-18T02:12:47.866Z,8.98
2023-04-18T02:15:35.025Z,8.10
2023-04-18T02:18:24.723Z,8.93
2023-04-18T02:21:11.836Z,8.35
2023-04-18T02:23:58.834Z,9.02
2023-04-18T02:26:46.078Z,9.82
2023-04-18T02:29:33.121Z,9.43
2023-04-18T02:32:20.173Z,9.35
2023-04-18T02:35:07.601Z,9.32
2023-04-18T02:37:54.959Z,9.50
2023-04-18T02:40:42.048Z,9.05
2023-04-18T02:43:29.081Z,9.82
2023-04-18T02:46:16.325Z,10.07
2023-04-18T02:49:07.313Z,9.77
2023-04-18T02:51:55.878Z,9.45
2023-04-18T02:54:44.010Z,9.35
2023-04-18T02:57:36.205Z,9.52
2023-04-18T03:00:41.863Z,9.73
2023-04-18T03:03:58.289Z,9.98
2023-04-18T03:07:04.225Z,10.02
2023-04-18T03:09:55.414Z,9.55
2023-04-18T03:12:47.650Z,10.82
2023-04-18T03:15:37.571Z,11.02
2023-04-18T03:18:25.697Z,11.10
2023-04-18T03:21:16.595Z,10.70
2023-04-18T03:24:05.140Z,11.02
2023-04-18T03:26:54.501Z,11.82
2023-04-18T03:29:45.491Z,11.43
2023-04-18T03:32:35.116Z,11.30
2023-04-18T03:35:22.599Z,11.30
2023-04-18T03:38:10.427Z,11.45
2023-04-18T03:41:00.282Z,11.90
2023-04-18T03:43:53.239Z,11.18
2023-04-18T03:46:41.160Z,11.32
2023-04-18T03:49:29.563Z,11.05
2023-04-18T03:52:16.947Z,11.68
2023-04-18T03:55:04.431Z,11.00
2023-04-18T03:57:53.964Z,10.68
2023-04-18T04:00:47.259Z,10.73
2023-04-18T04:03:34.384Z,10.52
2023-04-18T04:06:21.661Z,11.07
2023-04-18T04:09:08.676Z,11.70
2023-04-18T04:11:55.731Z,11.70
2023-04-18T04:14:42.936Z,11.68
2023-04-18T04:17:30.669Z,12.45
2023-04-18T04:20:23.952Z,11.23
2023-04-18T04:23:17.015Z,12.38
2023-04-18T04:26:08.506Z,12.10
2023-04-18T04:29:17.575Z,12.52
2023-04-18T04:32:08.049Z,13.25
2023-04-18T04:34:57.931Z,12.65
2023-04-18T04:37:45.255Z,14.10
2023-04-18T04:40:43.000Z,12.75
2023-04-18T04:43:33.195Z,13.20
2023-04-18T04:46:20.754Z,14.48
2023-04-18T04:49:13.495Z,17.63
2023-04-18T04:52:02.903Z,14.25
2023-04-18T04:54:51.560Z,15.70
2023-04-18T04:57:40.372Z,15.90
2023-04-18T05:00:43.429Z,15.60
2023-04-18T05:03:31.156Z,15.93
2023-04-18T05:06:22.597Z,15.95
2023-04-18T05:09:09.598Z,16.65
2023-04-18T05:11:56.739Z,16.20
2023-04-18T05:14:43.780Z,21.83
2023-04-18T05:17:30.915Z,16.55
2023-04-18T05:20:18.061Z,16.60
2023-04-18T05:23:05.373Z,17.13
2023-04-18T05:25:52.748Z,16.88
2023-04-18T05:28:39.838Z,16.10
2023-04-18T05:31:27.450Z,16.20
2023-04-18T05:34:14.728Z,19.30
2023-04-18T05:37:02.153Z,15.35
2023-04-18T05:39:49.179Z,17.00
2023-04-18T05:42:36.312Z,17.70
2023-04-18T05:45:23.407Z,15.27
2023-04-18T05:48:10.772Z,16.00
2023-04-18T05:50:57.915Z,15.10
2023-04-18T05:53:45.028Z,15.98
2023-04-18T05:56:32.053Z,15.68
2023-04-18T05:59:20.496Z,16.00
2023-04-18T06:02:13.242Z,15.88
2023-04-18T06:05:01.532Z,15.50
2023-04-18T06:07:48.886Z,15.00
2023-04-18T06:10:37.756Z,16.35
2023-04-18T06:13:26.253Z,14.65
2023-04-18T06:16:13.934Z,15.02
2023-04-18T06:19:02.333Z,14.00
2023-04-18T06:21:49.602Z,14.60
2023-04-18T06:24:37.345Z,14.20
2023-04-18T06:27:31.524Z,14.35
2023-04-18T06:30:21.869Z,14.38
2023-04-18T06:33:11.671Z,13.88
2023-04-18T06:35:59.188Z,14.07
2023-04-18T06:38:46.229Z,14.35
2023-04-18T06:41:33.350Z,13.75
2023-04-18T06:44:20.354Z,14.30
2023-04-18T06:47:07.395Z,13.57
2023-04-18T06:49:54.391Z,13.52
2023-04-18T06:52:44.483Z,13.80
2023-04-18T06:55:31.751Z,13.30
2023-04-18T06:58:18.790Z,13.68
2023-04-18T07:01:05.850Z,13.77
2023-04-18T07:03:53.129Z,13.38
2023-04-18T07:06:40.258Z,14.00
2023-04-18T07:09:27.929Z,14.63
2023-04-18T07:12:15.621Z,14.90
2023-04-18T07:15:03.793Z,13.25
2023-04-18T07:17:50.979Z,14.02
2023-04-18T07:20:38.118Z,13.27
2023-04-18T07:23:25.179Z,13.60
2023-04-18T07:26:13.528Z,13.43
2023-04-18T07:29:00.519Z,13.57
2023-04-18T07:31:48.373Z,13.13
2023-04-18T07:34:36.646Z,12.75
2023-04-18T07:37:23.869Z,13.13
2023-04-18T07:40:11.487Z,12.82
2023-04-18T07:42:58.537Z,12.57
2023-04-18T07:45:45.707Z,12.68
2023-04-18T07:48:33.064Z,12.32
2023-04-18T07:51:20.465Z,12.38
2023-04-18T07:54:07.454Z,13.15
2023-04-18T07:56:54.466Z,12.80
2023-04-18T07:59:41.466Z,11.35
2023-04-18T08:02:28.684Z,12.20
2023-04-18T08:05:15.965Z,12.65
2023-04-18T08:08:02.984Z,12.75
2023-04-18T08:10:50.063Z,12.93
2023-04-18T08:13:37.099Z,13.00
2023-04-18T08:16:24.369Z,12.93
2023-04-18T08:19:11.543Z,12.68
2023-04-18T08:22:09.409Z,12.90
2023-04-18T08:25:04.415Z,11.85
2023-04-18T08:27:52.236Z,12.60
2023-04-18T08:30:39.470Z,13.15
2023-04-18T08:33:27.197Z,13.98
2023-04-18T08:36:14.326Z,13.85
2023-04-18T08:39:01.788Z,13.82
2023-04-18T08:41:57.078Z,13.98
2023-04-18T08:44:45.072Z,14.18
2023-04-18T08:47:35.085Z,14.20
2023-04-18T08:50:23.081Z,13.60
2023-04-18T08:53:11.001Z,13.35
2023-04-18T08:56:00.195Z,13.38
2023-04-18T08:58:47.960Z,12.18
2023-04-18T09:01:58.846Z,12.75
2023-04-18T09:04:49.110Z,12.25
2023-04-18T09:07:36.217Z,11.98
2023-04-18T09:10:28.800Z,12.73
2023-04-18T09:13:47.311Z,12.43
2023-04-18T09:16:50.443Z,12.63
2023-04-18T09:19:44.639Z,13.65
2023-04-18T09:22:52.391Z,12.43
2023-04-18T09:25:45.087Z,12.32
2023-04-18T09:28:33.595Z,11.57
2023-04-18T09:31:22.623Z,11.35
2023-04-18T09:34:20.704Z,11.20
2023-04-18T09:37:12.768Z,10.77
2023-04-18T09:39:59.865Z,11.52
2023-04-18T09:42:50.894Z,11.00
2023-04-18T09:45:38.428Z,11.25
2023-04-18T09:48:25.523Z,11.20
2023-04-18T09:51:15.707Z,11.68
2023-04-18T09:54:04.495Z,12.50
2023-04-18T09:56:54.208Z,11.85
2023-04-18T10:00:24.507Z,11.00
2023-04-18T10:03:14.715Z,10.57
2023-04-18T10:06:02.203Z,10.60
2023-04-18T10:08:51.776Z,9.82
2023-04-18T10:11:39.135Z,10.25
2023-04-18T10:14:28.027Z,10.30
2023-04-18T10:17:16.127Z,9.82
2023-04-18T10:20:06.623Z,9.90
2023-04-18T10:22:55.217Z,10.27
2023-04-18T10:25:49.490Z,10.10
2023-04-18T10:28:58.967Z,10.95
2023-04-18T10:31:47.748Z,10.30
2023-04-18T10:34:37.663Z,10.63
2023-04-18T10:37:26.523Z,10.82
2023-04-18T10:40:13.970Z,11.32
2023-04-18T10:43:01.533Z,12.63
2023-04-18T10:46:23.805Z,12.52
2023-04-18T10:49:27.538Z,11.90
2023-04-18T10:52:16.045Z,12.38
2023-04-18T10:55:09.009Z,11.93
2023-04-18T10:57:58.448Z,11.00
2023-04-18T11:00:47.806Z,10.77
2023-04-18T11:03:35.288Z,10.70
2023-04-18T11:06:23.592Z,9.85
2023-04-18T11:09:12.395Z,9.05
2023-04-18T11:12:04.644Z,9.80
2023-04-18T11:14:55.118Z,9.95
2023-04-18T11:17:42.333Z,9.50
2023-04-18T11:20:37.344Z,10.27
2023-04-18T11:23:25.117Z,9.73
2023-04-18T11:26:15.255Z,9.18
2023-04-18T11:29:03.351Z,9.68
2023-04-18T11:31:52.834Z,8.95
2023-04-18T11:34:40.969Z,8.45
2023-04-18T11:37:28.076Z,9.13
2023-04-18T11:40:15.449Z,8.43
2023-04-18T11:43:03.970Z,8.55
2023-04-18T11:45:55.764Z,7.70
2023-04-18T11:48:45.336Z,7.72
2023-04-18T11:51:35.808Z,7.20
2023-04-18T11:54:42.907Z,7.90
2023-04-18T11:57:31.938Z,6.85
2023-04-18T12:00:30.336Z,6.38
2023-04-18T12:03:20.786Z,6.55
2023-04-18T12:06:08.155Z,7.03
2023-04-18T12:09:01.075Z,6.55
2023-04-18T12:12:01.544Z,6.97
2023-04-18T12:14:48.630Z,6.30
2023-04-18T12:17:37.847Z,8.10
2023-04-18T12:20:32.323Z,8.50
2023-04-18T12:23:46.330Z,7.25
2023-04-18T12:26:33.360Z,6.32
2023-04-18T12:29:20.351Z,6.47
2023-04-18T12:32:07.377Z,6.35
2023-04-18T12:34:54.369Z,6.80
2023-04-18T12:37:41.660Z,7.50
2023-04-18T12:40:29.940Z,7.20
2023-04-18T12:43:17.244Z,10.52
2023-04-18T12:46:04.378Z,7.50
2023-04-18T12:48:51.470Z,7.40
2023-04-18T12:51:38.692Z,7.13
2023-04-18T12:54:25.749Z,6.22
2023-04-18T12:57:12.835Z,6.20
2023-04-18T13:00:00.180Z,6.38
2023-04-18T13:02:47.433Z,6.28
2023-04-18T13:05:34.635Z,6.35
2023-04-18T13:08:23.161Z,6.65
2023-04-18T13:11:10.149Z,6.32
2023-04-18T13:13:57.219Z,6.38
2023-04-18T13:16:44.333Z,6.03
2023-04-18T13:19:31.510Z,7.10
2023-04-18T13:22:22.039Z,6.97
2023-04-18T13:25:12.760Z,6.55
2023-04-18T13:28:00.834Z,7.40
2023-04-18T13:30:48.132Z,8.07
2023-04-18T13:33:35.195Z,7.95
2023-04-18T13:36:22.254Z,7.05
2023-04-18T13:39:10.535Z,7.22
2023-04-18T13:41:57.636Z,7.28
2023-04-18T13:44:46.512Z,7.10
2023-04-18T13:47:33.657Z,6.82
2023-04-18T13:50:21.143Z,6.85
2023-04-18T13:53:08.217Z,6.78
2023-04-18T13:55:55.830Z,7.15
2023-04-18T13:58:42.852Z,7.28
2023-04-18T14:01:29.909Z,7.70
2023-04-18T14:04:17.104Z,9.77
2023-04-18T14:07:06.164Z,9.75
2023-04-18T14:09:54.082Z,10.70
2023-04-18T14:12:41.432Z,10.52
2023-04-18T14:15:28.569Z,10.30
2023-04-18T14:18:17.770Z,10.00
2023-04-18T14:21:04.944Z,10.70
2023-04-18T14:23:52.961Z,11.10
2023-04-18T14:26:39.996Z,10.48
2023-04-18T14:29:26.998Z,10.23
2023-04-18T14:32:13.995Z,10.77
2023-04-18T14:35:04.701Z,10.85
2023-04-18T14:37:51.897Z,9.32
2023-04-18T14:40:38.956Z,8.88
2023-04-18T14:43:26.821Z,7.55
2023-04-18T14:46:16.452Z,7.68
2023-04-18T14:49:03.616Z,8.35
2023-04-18T14:51:50.794Z,7.28
2023-04-18T14:54:37.884Z,7.22
2023-04-18T14:57:25.574Z,6.90
2023-04-18T15:00:14.507Z,6.85
2023-04-18T15:03:01.802Z,5.97
2023-04-18T15:05:49.105Z,6.35
2023-04-18T15:08:36.587Z,5.50
2023-04-18T15:11:24.260Z,6.13
2023-04-18T15:14:11.376Z,6.03
2023-04-18T15:16:58.961Z,5.55
2023-04-18T15:19:46.044Z,5.88
2023-04-18T15:22:34.109Z,6.38
2023-04-18T15:25:21.514Z,6.35
2023-04-18T15:28:08.726Z,6.45
2023-04-18T15:30:55.695Z,5.57
2023-04-18T15:33:42.785Z,6.00
2023-04-18T15:36:29.854Z,5.75
2023-04-18T15:39:20.210Z,5.15
2023-04-18T15:42:07.632Z,5.57
2023-04-18T15:44:54.890Z,13.27
2023-04-18T15:47:42.318Z,6.07
2023-04-18T15:50:30.872Z,6.05
2023-04-18T15:53:20.446Z,6.25
2023-04-18T15:56:07.761Z,8.60
2023-04-18T15:58:56.757Z,6.90
2023-04-18T16:01:46.163Z,7.03
2023-04-18T16:04:34.167Z,7.43
2023-04-18T16:07:21.862Z,7.10
2023-04-18T16:10:10.702Z,7.40
2023-04-18T16:12:59.567Z,7.22
2023-04-18T16:15:48.217Z,7.40
2023-04-18T16:18:35.561Z,7.80
2023-04-18T16:21:23.030Z,7.70
2023-04-18T16:24:10.432Z,7.22
2023-04-18T16:26:58.622Z,8.32
2023-04-18T16:29:46.216Z,7.45
2023-04-18T16:32:33.561Z,7.25
2023-04-18T16:35:20.999Z,7.35
2023-04-18T16:38:08.429Z,7.20
2023-04-18T16:40:57.348Z,7.00
2023-04-18T16:43:44.655Z,7.00
2023-04-18T16:46:32.404Z,6.60
2023-04-18T16:49:20.572Z,6.70
2023-04-18T16:52:08.140Z,6.65
2023-04-18T16:54:55.491Z,7.30
2023-04-18T16:57:42.889Z,7.38
2023-04-18T17:00:30.368Z,7.15
2023-04-18T17:03:17.703Z,7.25
2023-04-18T17:06:05.959Z,7.43
2023-04-18T17:08:53.891Z,7.57
2023-04-18T17:11:41.799Z,7.35
2023-04-18T17:14:29.241Z,7.78
2023-04-18T17:17:19.880Z,8.20
2023-04-18T17:20:08.940Z,7.68
2023-04-18T17:22:57.241Z,8.45
2023-04-18T17:25:44.419Z,8.38
2023-04-18T17:28:31.500Z,7.90
2023-04-18T17:31:18.781Z,8.80
2023-04-18T17:34:06.104Z,10.07
2023-04-18T17:36:53.344Z,9.05
2023-04-18T17:39:40.679Z,10.57
2023-04-18T17:42:28.055Z,10.15
2023-04-18T17:45:15.253Z,10.23
2023-04-18T17:48:03.049Z,10.13
2023-04-18T17:50:50.225Z,9.13
2023-04-18T17:53:37.283Z,9.45
2023-04-18T17:56:24.787Z,9.95
2023-04-18T17:59:12.125Z,8.82
2023-04-18T18:01:59.627Z,8.73
2023-04-18T18:04:47.302Z,8.68
2023-04-18T18:07:37.399Z,12.52
2023-04-18T18:10:25.236Z,17.20
2023-04-18T18:13:12.540Z,16.70
2023-04-18T18:16:01.453Z,11.43
2023-04-18T18:18:49.617Z,9.35
2023-04-18T18:21:37.050Z,9.40
2023-04-18T18:24:26.937Z,10.20
2023-04-18T18:27:14.394Z,9.60
2023-04-18T18:30:01.563Z,9.75
2023-04-18T18:32:49.443Z,9.63
2023-04-18T18:35:36.625Z,9.27
2023-04-18T18:38:23.625Z,9.40
2023-04-18T18:41:10.709Z,9.27
2023-04-18T18:43:57.743Z,9.40
2023-04-18T18:46:44.846Z,9.40
2023-04-18T18:49:31.923Z,9.88
2023-04-18T18:52:18.970Z,9.07
2023-04-18T18:55:07.349Z,9.25
2023-04-18T18:57:54.496Z,9.20
2023-04-18T19:00:41.679Z,9.80
2023-04-18T19:03:29.358Z,9.48
2023-04-18T19:06:16.594Z,9.40
2023-04-18T19:09:05.227Z,9.82
2023-04-18T19:11:52.743Z,9.40
2023-04-18T19:14:42.283Z,10.10
2023-04-18T19:17:31.125Z,10.38
2023-04-18T19:20:18.838Z,10.02
2023-04-18T19:23:06.383Z,9.80
2023-04-18T19:25:53.748Z,10.18
2023-04-18T19:28:41.757Z,9.77
2023-04-18T19:31:29.271Z,9.45
2023-04-18T19:34:18.963Z,9.77
2023-04-18T19:37:06.565Z,9.00
2023-04-18T19:39:53.599Z,10.55
2023-04-18T19:42:41.022Z,10.25
2023-04-18T19:45:30.391Z,9.40
2023-04-18T19:48:17.411Z,10.25
2023-04-18T19:51:04.656Z,12.18
2023-04-18T19:53:51.841Z,10.73
2023-04-18T19:56:39.036Z,17.88
2023-04-18T19:59:26.026Z,10.77
2023-04-18T20:02:13.218Z,11.98
2023-04-18T20:05:00.568Z,13.07
2023-04-18T20:07:48.089Z,11.60
2023-04-18T20:10:37.151Z,10.77
2023-04-18T20:13:24.357Z,10.73
2023-04-18T20:16:12.281Z,10.65
2023-04-18T20:18:59.656Z,9.85
2023-04-18T20:21:46.772Z,9.30
2023-04-18T20:24:34.703Z,9.00
2023-04-18T20:27:21.827Z,9.48
2023-04-18T20:30:09.297Z,9.25
2023-04-18T20:32:56.385Z,9.73
2023-04-18T20:35:44.433Z,9.63
2023-04-18T20:38:31.467Z,8.65
2023-04-18T20:41:18.823Z,8.02
2023-04-18T20:44:06.548Z,8.30
2023-04-18T20:46:53.567Z,8.23
2023-04-18T20:49:40.846Z,8.27
2023-04-18T20:52:28.059Z,8.50
2023-04-18T20:55:16.718Z,8.93
2023-04-18T20:58:03.734Z,7.78
2023-04-18T21:00:50.753Z,6.85
2023-04-18T21:03:37.919Z,6.78
2023-04-18T21:06:25.325Z,6.90
2023-04-18T21:09:12.511Z,6.25
2023-04-18T21:11:59.654Z,6.32
2023-04-18T21:14:47.968Z,6.03
2023-04-18T21:17:35.360Z,6.30
2023-04-18T21:20:22.625Z,6.32
2023-04-18T21:23:09.684Z,5.97
2023-04-18T21:25:56.713Z,6.15
2023-04-18T21:28:54.351Z,5.55
2023-04-18T21:31:41.427Z,5.90
2023-04-18T21:34:28.723Z,5.03
2023-04-18T21:37:15.735Z,5.57
2023-04-18T21:40:03.680Z,4.60
2023-04-18T21:42:53.656Z,5.13
2023-04-18T21:45:40.861Z,4.80
2023-04-18T21:48:27.937Z,4.45
2023-04-18T21:51:16.469Z,5.43
2023-04-18T21:54:04.029Z,4.85
2023-04-18T21:56:51.072Z,4.50
2023-04-18T21:59:38.070Z,4.47
2023-04-18T22:02:26.542Z,4.50
2023-04-18T22:05:13.853Z,4.47
2023-04-18T22:08:02.689Z,4.95
2023-04-18T22:10:50.713Z,4.10
2023-04-18T22:13:37.717Z,4.28
2023-04-18T22:16:24.881Z,4.30
2023-04-18T22:19:12.370Z,3.95
2023-04-18T22:21:59.354Z,4.40
2023-04-18T22:24:47.636Z,4.70
2023-04-18T22:27:34.969Z,4.35
2023-04-18T22:30:22.406Z,4.63
2023-04-18T22:33:09.431Z,4.53
2023-04-18T22:35:56.489Z,4.40
2023-04-18T22:38:43.750Z,4.57
2023-04-18T22:41:30.831Z,4.43
2023-04-18T22:44:18.064Z,4.50
2023-04-18T22:47:05.331Z,4.82
2023-04-18T22:49:53.096Z,4.53
2023-04-18T22:52:40.332Z,4.78
2023-04-18T22:55:27.344Z,4.38
2023-04-18T22:58:14.462Z,4.65
2023-04-18T23:01:01.472Z,4.85
2023-04-18T23:03:48.749Z,4.28
2023-04-18T23:06:36.804Z,4.50
2023-04-18T23:09:24.455Z,4.32
2023-04-18T23:12:11.485Z,4.85
2023-04-18T23:14:58.483Z,4.82
2023-04-18T23:17:45.682Z,4.53
2023-04-18T23:20:32.768Z,4.97
2023-04-18T23:23:19.852Z,4.90
2023-04-18T23:26:13.974Z,5.32
2023-04-18T23:29:01.018Z,4.57
2023-04-18T23:31:48.147Z,4.80
2023-04-18T23:34:35.271Z,5.30
2023-04-18T23:37:22.485Z,5.05
2023-04-18T23:40:09.823Z,4.90
2023-04-18T23:42:57.083Z,4.70
2023-04-18T23:45:44.105Z,5.25
2023-04-18T23:48:31.129Z,5.25
2023-04-18T23:51:18.975Z,4.95
2023-04-18T23:54:06.120Z,5.10
2023-04-18T23:56:53.121Z,5.32
2023-04-18T23:59:40.143Z,4.93
